Lincoln, Illinois
Current Conditions -  °F | °C
As of 10:15 AM on Tuesday 21 Oct 2014 (Local Time) from KAAA Reporting Station
Clear Clear  
Wind Chill: 56°   Ceiling: Unl
Heat Index: 56°   Visibility: 10mi
Dew Point: 46°   Wind: 10mph
Humidity: 70%   Direction: 20°NNE
Pressure: 30.15"   Gusts: NA
Location:  40.15°N, 89.36°W
Report Text: KAAA 211515Z AUTO 02009KT 10SM CLR 13/08 A3015 RMK AO2 T01310077
Loading
Personal Weather Stations






























Interactive Weather Map
Tropical Storm Tracking
New forecast layout! Learn more

10-Day Weather Forecast

Advertisements
Track Severe Weather on mobile